sensor_id;sensor_type;location;lat;lon;timestamp;P1;durP1;ratioP1;P2;durP2;ratioP2
14276;SDS011;7222;57.346;12.150;2023-07-08T00:02:11;5.13;;;3.00;;
14276;SDS011;7222;57.346;12.150;2023-07-08T00:04:40;3.37;;;2.93;;
14276;SDS011;7222;57.346;12.150;2023-07-08T00:07:10;4.67;;;2.60;;
14276;SDS011;7222;57.346;12.150;2023-07-08T00:09:39;3.20;;;2.87;;
14276;SDS011;7222;57.346;12.150;2023-07-08T00:12:08;4.20;;;2.90;;
14276;SDS011;7222;57.346;12.150;2023-07-08T00:14:37;4.83;;;2.93;;
14276;SDS011;7222;57.346;12.150;2023-07-08T00:17:09;3.43;;;2.90;;
14276;SDS011;7222;57.346;12.150;2023-07-08T00:19:38;4.77;;;3.03;;
14276;SDS011;7222;57.346;12.150;2023-07-08T00:22:07;5.73;;;3.77;;
14276;SDS011;7222;57.346;12.150;2023-07-08T00:24:37;5.93;;;3.17;;
14276;SDS011;7222;57.346;12.150;2023-07-08T00:27:04;4.20;;;2.73;;
14276;SDS011;7222;57.346;12.150;2023-07-08T00:29:34;4.00;;;3.67;;
14276;SDS011;7222;57.346;12.150;2023-07-08T00:32:01;3.77;;;3.20;;
14276;SDS011;7222;57.346;12.150;2023-07-08T00:34:35;4.43;;;2.93;;
14276;SDS011;7222;57.346;12.150;2023-07-08T00:37:02;5.03;;;2.90;;
14276;SDS011;7222;57.346;12.150;2023-07-08T00:39:30;4.97;;;2.87;;
14276;SDS011;7222;57.346;12.150;2023-07-08T00:41:57;3.87;;;3.23;;
14276;SDS011;7222;57.346;12.150;2023-07-08T00:44:26;3.00;;;2.80;;
14276;SDS011;7222;57.346;12.150;2023-07-08T00:46:55;3.97;;;3.10;;
14276;SDS011;7222;57.346;12.150;2023-07-08T00:49:30;4.20;;;3.00;;
14276;SDS011;7222;57.346;12.150;2023-07-08T00:52:20;4.83;;;3.70;;
14276;SDS011;7222;57.346;12.150;2023-07-08T00:54:50;4.33;;;3.00;;
14276;SDS011;7222;57.346;12.150;2023-07-08T00:57:18;4.47;;;3.43;;
14276;SDS011;7222;57.346;12.150;2023-07-08T00:59:48;4.07;;;3.50;;
14276;SDS011;7222;57.346;12.150;2023-07-08T01:02:19;7.17;;;4.20;;
14276;SDS011;7222;57.346;12.150;2023-07-08T01:04:51;5.30;;;3.67;;
14276;SDS011;7222;57.346;12.150;2023-07-08T01:07:23;4.87;;;3.17;;
14276;SDS011;7222;57.346;12.150;2023-07-08T01:09:52;5.53;;;3.30;;
14276;SDS011;7222;57.346;12.150;2023-07-08T01:12:27;4.70;;;2.93;;
14276;SDS011;7222;57.346;12.150;2023-07-08T01:14:58;8.53;;;3.20;;
14276;SDS011;7222;57.346;12.150;2023-07-08T01:17:27;4.37;;;2.87;;
14276;SDS011;7222;57.346;12.150;2023-07-08T01:19:57;4.73;;;3.50;;
14276;SDS011;7222;57.346;12.150;2023-07-08T01:22:26;6.10;;;3.57;;
14276;SDS011;7222;57.346;12.150;2023-07-08T01:24:57;3.10;;;2.87;;
14276;SDS011;7222;57.346;12.150;2023-07-08T01:27:28;3.50;;;3.20;;
14276;SDS011;7222;57.346;12.150;2023-07-08T01:29:57;6.97;;;3.77;;
14276;SDS011;7222;57.346;12.150;2023-07-08T01:32:24;6.87;;;4.33;;
14276;SDS011;7222;57.346;12.150;2023-07-08T01:34:52;5.23;;;3.83;;
14276;SDS011;7222;57.346;12.150;2023-07-08T01:37:31;7.57;;;5.00;;
14276;SDS011;7222;57.346;12.150;2023-07-08T01:42:57;4.23;;;3.83;;
14276;SDS011;7222;57.346;12.150;2023-07-08T01:45:25;5.13;;;3.33;;
14276;SDS011;7222;57.346;12.150;2023-07-08T01:47:56;6.07;;;4.53;;
14276;SDS011;7222;57.346;12.150;2023-07-08T01:50:25;4.70;;;3.80;;
14276;SDS011;7222;57.346;12.150;2023-07-08T01:52:55;11.03;;;5.37;;
14276;SDS011;7222;57.346;12.150;2023-07-08T01:55:25;8.00;;;4.63;;
14276;SDS011;7222;57.346;12.150;2023-07-08T01:57:54;6.37;;;4.37;;
14276;SDS011;7222;57.346;12.150;2023-07-08T02:00:21;7.27;;;4.23;;
14276;SDS011;7222;57.346;12.150;2023-07-08T02:02:48;5.83;;;3.80;;
14276;SDS011;7222;57.346;12.150;2023-07-08T02:05:16;4.70;;;4.00;;
14276;SDS011;7222;57.346;12.150;2023-07-08T02:07:43;4.60;;;3.60;;
14276;SDS011;7222;57.346;12.150;2023-07-08T02:10:12;4.47;;;3.57;;
14276;SDS011;7222;57.346;12.150;2023-07-08T02:12:39;8.93;;;4.80;;
14276;SDS011;7222;57.346;12.150;2023-07-08T02:15:07;8.27;;;4.57;;
14276;SDS011;7222;57.346;12.150;2023-07-08T02:17:35;6.33;;;4.53;;
14276;SDS011;7222;57.346;12.150;2023-07-08T02:20:03;10.23;;;5.07;;
14276;SDS011;7222;57.346;12.150;2023-07-08T02:22:31;5.93;;;3.90;;
14276;SDS011;7222;57.346;12.150;2023-07-08T02:24:57;8.33;;;4.77;;
14276;SDS011;7222;57.346;12.150;2023-07-08T02:27:26;5.17;;;4.50;;
14276;SDS011;7222;57.346;12.150;2023-07-08T02:29:53;7.70;;;4.27;;
14276;SDS011;7222;57.346;12.150;2023-07-08T02:32:20;6.40;;;4.70;;
14276;SDS011;7222;57.346;12.150;2023-07-08T02:34:47;6.33;;;3.90;;
14276;SDS011;7222;57.346;12.150;2023-07-08T02:37:17;6.30;;;5.13;;
14276;SDS011;7222;57.346;12.150;2023-07-08T02:39:44;8.80;;;4.73;;
14276;SDS011;7222;57.346;12.150;2023-07-08T02:42:11;4.97;;;4.53;;
14276;SDS011;7222;57.346;12.150;2023-07-08T02:44:39;7.47;;;4.40;;
14276;SDS011;7222;57.346;12.150;2023-07-08T02:47:06;6.17;;;4.60;;
14276;SDS011;7222;57.346;12.150;2023-07-08T02:49:33;5.90;;;4.87;;
14276;SDS011;7222;57.346;12.150;2023-07-08T02:52:00;8.90;;;5.53;;
14276;SDS011;7222;57.346;12.150;2023-07-08T02:54:27;6.67;;;4.13;;
14276;SDS011;7222;57.346;12.150;2023-07-08T02:56:54;8.20;;;4.60;;
14276;SDS011;7222;57.346;12.150;2023-07-08T02:59:21;4.87;;;4.10;;
14276;SDS011;7222;57.346;12.150;2023-07-08T03:01:50;6.77;;;4.53;;
14276;SDS011;7222;57.346;12.150;2023-07-08T03:04:17;6.30;;;4.37;;
14276;SDS011;7222;57.346;12.150;2023-07-08T03:06:47;7.20;;;5.00;;
14276;SDS011;7222;57.346;12.150;2023-07-08T03:09:16;6.67;;;4.80;;
14276;SDS011;7222;57.346;12.150;2023-07-08T03:11:43;10.37;;;5.77;;
14276;SDS011;7222;57.346;12.150;2023-07-08T03:14:10;8.30;;;5.87;;
14276;SDS011;7222;57.346;12.150;2023-07-08T03:16:37;12.70;;;6.20;;
14276;SDS011;7222;57.346;12.150;2023-07-08T03:19:12;10.43;;;6.40;;
14276;SDS011;7222;57.346;12.150;2023-07-08T03:21:40;11.30;;;6.90;;
14276;SDS011;7222;57.346;12.150;2023-07-08T03:24:08;9.33;;;6.87;;
14276;SDS011;7222;57.346;12.150;2023-07-08T03:26:37;8.97;;;6.00;;
14276;SDS011;7222;57.346;12.150;2023-07-08T03:29:05;13.30;;;7.60;;
14276;SDS011;7222;57.346;12.150;2023-07-08T03:31:35;14.97;;;8.10;;
14276;SDS011;7222;57.346;12.150;2023-07-08T03:34:02;14.40;;;8.83;;
14276;SDS011;7222;57.346;12.150;2023-07-08T03:36:30;15.13;;;8.00;;
14276;SDS011;7222;57.346;12.150;2023-07-08T03:38:57;13.10;;;7.47;;
14276;SDS011;7222;57.346;12.150;2023-07-08T03:41:25;8.57;;;6.53;;
14276;SDS011;7222;57.346;12.150;2023-07-08T03:43:52;7.77;;;6.33;;
14276;SDS011;7222;57.346;12.150;2023-07-08T03:46:20;8.20;;;6.47;;
14276;SDS011;7222;57.346;12.150;2023-07-08T03:48:48;7.27;;;5.57;;
14276;SDS011;7222;57.346;12.150;2023-07-08T03:51:17;8.07;;;6.33;;
14276;SDS011;7222;57.346;12.150;2023-07-08T03:53:49;6.53;;;5.40;;
14276;SDS011;7222;57.346;12.150;2023-07-08T03:56:16;7.17;;;4.97;;
14276;SDS011;7222;57.346;12.150;2023-07-08T03:58:43;9.80;;;6.27;;
14276;SDS011;7222;57.346;12.150;2023-07-08T04:01:12;9.83;;;6.77;;
14276;SDS011;7222;57.346;12.150;2023-07-08T04:03:41;9.00;;;7.63;;
14276;SDS011;7222;57.346;12.150;2023-07-08T04:06:09;11.93;;;8.57;;
14276;SDS011;7222;57.346;12.150;2023-07-08T04:08:36;14.17;;;9.07;;
14276;SDS011;7222;57.346;12.150;2023-07-08T04:11:04;13.20;;;8.57;;
14276;SDS011;7222;57.346;12.150;2023-07-08T04:13:32;11.63;;;7.87;;
14276;SDS011;7222;57.346;12.150;2023-07-08T04:16:00;10.93;;;8.80;;
14276;SDS011;7222;57.346;12.150;2023-07-08T04:18:30;12.10;;;8.30;;
14276;SDS011;7222;57.346;12.150;2023-07-08T04:20:57;10.07;;;7.43;;
14276;SDS011;7222;57.346;12.150;2023-07-08T04:23:24;7.63;;;6.83;;
14276;SDS011;7222;57.346;12.150;2023-07-08T04:25:52;11.53;;;7.10;;
14276;SDS011;7222;57.346;12.150;2023-07-08T04:28:22;6.70;;;5.87;;
14276;SDS011;7222;57.346;12.150;2023-07-08T04:30:49;7.73;;;6.20;;
14276;SDS011;7222;57.346;12.150;2023-07-08T04:33:16;9.30;;;6.70;;
14276;SDS011;7222;57.346;12.150;2023-07-08T04:35:44;9.27;;;6.67;;
14276;SDS011;7222;57.346;12.150;2023-07-08T04:38:13;10.30;;;7.20;;
14276;SDS011;7222;57.346;12.150;2023-07-08T04:40:43;11.53;;;6.70;;
14276;SDS011;7222;57.346;12.150;2023-07-08T04:43:10;8.87;;;6.50;;
14276;SDS011;7222;57.346;12.150;2023-07-08T04:45:38;9.47;;;6.60;;
14276;SDS011;7222;57.346;12.150;2023-07-08T04:48:07;8.70;;;7.10;;
14276;SDS011;7222;57.346;12.150;2023-07-08T04:50:39;10.57;;;6.57;;
14276;SDS011;7222;57.346;12.150;2023-07-08T04:53:07;11.60;;;7.43;;
14276;SDS011;7222;57.346;12.150;2023-07-08T04:55:34;10.73;;;7.07;;
14276;SDS011;7222;57.346;12.150;2023-07-08T04:58:01;10.90;;;7.10;;
14276;SDS011;7222;57.346;12.150;2023-07-08T05:00:28;9.20;;;6.43;;
14276;SDS011;7222;57.346;12.150;2023-07-08T05:02:57;9.27;;;6.37;;
14276;SDS011;7222;57.346;12.150;2023-07-08T05:05:24;10.10;;;6.10;;
14276;SDS011;7222;57.346;12.150;2023-07-08T05:07:51;11.00;;;6.20;;
14276;SDS011;7222;57.346;12.150;2023-07-08T05:10:19;8.73;;;6.73;;
14276;SDS011;7222;57.346;12.150;2023-07-08T05:12:47;7.97;;;6.13;;
14276;SDS011;7222;57.346;12.150;2023-07-08T05:15:14;10.07;;;5.93;;
14276;SDS011;7222;57.346;12.150;2023-07-08T05:17:42;9.50;;;5.07;;
14276;SDS011;7222;57.346;12.150;2023-07-08T05:20:12;8.17;;;5.67;;
14276;SDS011;7222;57.346;12.150;2023-07-08T05:22:43;11.33;;;5.57;;
14276;SDS011;7222;57.346;12.150;2023-07-08T05:25:11;8.00;;;5.17;;
14276;SDS011;7222;57.346;12.150;2023-07-08T05:27:39;10.83;;;5.47;;
14276;SDS011;7222;57.346;12.150;2023-07-08T05:30:06;7.97;;;5.33;;
14276;SDS011;7222;57.346;12.150;2023-07-08T05:32:37;6.13;;;4.40;;
14276;SDS011;7222;57.346;12.150;2023-07-08T05:35:04;7.87;;;5.03;;
14276;SDS011;7222;57.346;12.150;2023-07-08T05:37:33;6.80;;;4.50;;
14276;SDS011;7222;57.346;12.150;2023-07-08T05:40:00;7.03;;;4.83;;
14276;SDS011;7222;57.346;12.150;2023-07-08T05:42:29;8.07;;;4.83;;
14276;SDS011;7222;57.346;12.150;2023-07-08T05:44:56;7.27;;;4.53;;
14276;SDS011;7222;57.346;12.150;2023-07-08T05:47:24;5.93;;;4.30;;
14276;SDS011;7222;57.346;12.150;2023-07-08T05:49:51;7.17;;;4.40;;
14276;SDS011;7222;57.346;12.150;2023-07-08T05:52:18;5.57;;;4.13;;
14276;SDS011;7222;57.346;12.150;2023-07-08T05:54:47;7.40;;;4.63;;
14276;SDS011;7222;57.346;12.150;2023-07-08T05:57:14;7.27;;;4.67;;
14276;SDS011;7222;57.346;12.150;2023-07-08T05:59:41;5.67;;;4.10;;
14276;SDS011;7222;57.346;12.150;2023-07-08T06:02:10;6.03;;;4.23;;
14276;SDS011;7222;57.346;12.150;2023-07-08T06:04:38;4.97;;;3.70;;
14276;SDS011;7222;57.346;12.150;2023-07-08T06:07:05;5.17;;;3.63;;
14276;SDS011;7222;57.346;12.150;2023-07-08T06:09:32;4.33;;;3.20;;
14276;SDS011;7222;57.346;12.150;2023-07-08T06:12:02;5.93;;;3.20;;
14276;SDS011;7222;57.346;12.150;2023-07-08T06:14:30;6.63;;;3.40;;
14276;SDS011;7222;57.346;12.150;2023-07-08T06:16:57;4.23;;;3.40;;
14276;SDS011;7222;57.346;12.150;2023-07-08T06:19:24;5.90;;;3.30;;
14276;SDS011;7222;57.346;12.150;2023-07-08T06:21:51;3.93;;;2.97;;
14276;SDS011;7222;57.346;12.150;2023-07-08T06:24:18;4.07;;;3.07;;
14276;SDS011;7222;57.346;12.150;2023-07-08T06:26:46;4.50;;;2.83;;
14276;SDS011;7222;57.346;12.150;2023-07-08T06:29:14;3.43;;;3.10;;
14276;SDS011;7222;57.346;12.150;2023-07-08T06:31:41;8.57;;;3.87;;
14276;SDS011;7222;57.346;12.150;2023-07-08T06:34:09;4.63;;;3.37;;
14276;SDS011;7222;57.346;12.150;2023-07-08T06:36:36;6.30;;;3.53;;
14276;SDS011;7222;57.346;12.150;2023-07-08T06:39:09;6.30;;;3.50;;
14276;SDS011;7222;57.346;12.150;2023-07-08T06:41:36;5.10;;;3.43;;
14276;SDS011;7222;57.346;12.150;2023-07-08T06:44:03;6.90;;;3.00;;
14276;SDS011;7222;57.346;12.150;2023-07-08T06:46:33;5.50;;;3.67;;
14276;SDS011;7222;57.346;12.150;2023-07-08T06:49:01;4.57;;;3.47;;
14276;SDS011;7222;57.346;12.150;2023-07-08T06:51:28;5.30;;;3.53;;
14276;SDS011;7222;57.346;12.150;2023-07-08T06:53:56;7.73;;;3.73;;
14276;SDS011;7222;57.346;12.150;2023-07-08T06:56:23;4.73;;;3.07;;
14276;SDS011;7222;57.346;12.150;2023-07-08T06:58:50;4.83;;;3.23;;
14276;SDS011;7222;57.346;12.150;2023-07-08T07:01:17;5.20;;;3.20;;
14276;SDS011;7222;57.346;12.150;2023-07-08T07:03:45;4.17;;;3.13;;
14276;SDS011;7222;57.346;12.150;2023-07-08T07:06:12;2.93;;;2.70;;
14276;SDS011;7222;57.346;12.150;2023-07-08T07:08:39;4.67;;;3.07;;
14276;SDS011;7222;57.346;12.150;2023-07-08T07:11:06;3.90;;;3.37;;
14276;SDS011;7222;57.346;12.150;2023-07-08T07:13:33;3.23;;;2.93;;
14276;SDS011;7222;57.346;12.150;2023-07-08T07:15:59;4.00;;;2.93;;
14276;SDS011;7222;57.346;12.150;2023-07-08T07:18:26;4.00;;;2.93;;
14276;SDS011;7222;57.346;12.150;2023-07-08T07:20:55;5.80;;;3.10;;
14276;SDS011;7222;57.346;12.150;2023-07-08T07:23:22;4.50;;;3.00;;
14276;SDS011;7222;57.346;12.150;2023-07-08T07:25:49;3.37;;;2.63;;
14276;SDS011;7222;57.346;12.150;2023-07-08T07:28:16;3.33;;;3.03;;
14276;SDS011;7222;57.346;12.150;2023-07-08T07:30:43;4.20;;;3.30;;
14276;SDS011;7222;57.346;12.150;2023-07-08T07:33:11;4.93;;;2.80;;
14276;SDS011;7222;57.346;12.150;2023-07-08T07:35:41;5.80;;;2.83;;
14276;SDS011;7222;57.346;12.150;2023-07-08T07:38:10;6.33;;;3.07;;
14276;SDS011;7222;57.346;12.150;2023-07-08T07:40:39;4.27;;;2.90;;
14276;SDS011;7222;57.346;12.150;2023-07-08T07:43:06;4.90;;;2.97;;
14276;SDS011;7222;57.346;12.150;2023-07-08T07:45:33;4.63;;;3.00;;
14276;SDS011;7222;57.346;12.150;2023-07-08T07:48:01;5.50;;;3.00;;
14276;SDS011;7222;57.346;12.150;2023-07-08T07:50:29;3.97;;;2.90;;
14276;SDS011;7222;57.346;12.150;2023-07-08T07:52:57;4.17;;;3.40;;
14276;SDS011;7222;57.346;12.150;2023-07-08T07:55:25;5.43;;;2.90;;
14276;SDS011;7222;57.346;12.150;2023-07-08T07:57:52;4.40;;;2.60;;
14276;SDS011;7222;57.346;12.150;2023-07-08T08:00:19;4.27;;;2.90;;
14276;SDS011;7222;57.346;12.150;2023-07-08T08:02:46;3.03;;;2.60;;
14276;SDS011;7222;57.346;12.150;2023-07-08T08:05:13;4.03;;;2.90;;
14276;SDS011;7222;57.346;12.150;2023-07-08T08:07:40;5.27;;;2.87;;
14276;SDS011;7222;57.346;12.150;2023-07-08T08:10:08;5.73;;;2.93;;
14276;SDS011;7222;57.346;12.150;2023-07-08T08:12:36;5.00;;;3.07;;
14276;SDS011;7222;57.346;12.150;2023-07-08T08:15:03;3.23;;;2.80;;
14276;SDS011;7222;57.346;12.150;2023-07-08T08:17:31;4.00;;;2.80;;
14276;SDS011;7222;57.346;12.150;2023-07-08T08:19:58;5.03;;;2.93;;
14276;SDS011;7222;57.346;12.150;2023-07-08T08:22:25;7.10;;;3.30;;
14276;SDS011;7222;57.346;12.150;2023-07-08T08:24:51;4.37;;;2.80;;
14276;SDS011;7222;57.346;12.150;2023-07-08T08:27:18;2.90;;;2.60;;
14276;SDS011;7222;57.346;12.150;2023-07-08T08:29:47;4.13;;;3.07;;
14276;SDS011;7222;57.346;12.150;2023-07-08T08:32:14;4.03;;;2.47;;
14276;SDS011;7222;57.346;12.150;2023-07-08T08:34:41;3.87;;;2.90;;
14276;SDS011;7222;57.346;12.150;2023-07-08T08:37:09;4.53;;;3.10;;
14276;SDS011;7222;57.346;12.150;2023-07-08T08:39:36;3.70;;;2.70;;
14276;SDS011;7222;57.346;12.150;2023-07-08T08:42:04;3.53;;;2.80;;
14276;SDS011;7222;57.346;12.150;2023-07-08T08:44:38;3.83;;;3.17;;
14276;SDS011;7222;57.346;12.150;2023-07-08T08:47:14;5.90;;;3.20;;
14276;SDS011;7222;57.346;12.150;2023-07-08T08:49:50;3.67;;;2.90;;
14276;SDS011;7222;57.346;12.150;2023-07-08T08:52:22;3.37;;;2.47;;
14276;SDS011;7222;57.346;12.150;2023-07-08T08:54:49;2.80;;;2.60;;
14276;SDS011;7222;57.346;12.150;2023-07-08T08:57:18;3.03;;;2.50;;
14276;SDS011;7222;57.346;12.150;2023-07-08T08:59:56;3.43;;;2.37;;
14276;SDS011;7222;57.346;12.150;2023-07-08T09:02:28;3.63;;;2.80;;
14276;SDS011;7222;57.346;12.150;2023-07-08T09:05:01;2.63;;;2.43;;
14276;SDS011;7222;57.346;12.150;2023-07-08T09:07:30;3.70;;;2.80;;
14276;SDS011;7222;57.346;12.150;2023-07-08T09:10:07;2.73;;;2.47;;
14276;SDS011;7222;57.346;12.150;2023-07-08T09:12:40;2.90;;;2.60;;
14276;SDS011;7222;57.346;12.150;2023-07-08T09:15:10;4.47;;;2.73;;
14276;SDS011;7222;57.346;12.150;2023-07-08T09:17:40;4.57;;;2.83;;
14276;SDS011;7222;57.346;12.150;2023-07-08T09:20:12;2.93;;;2.63;;
14276;SDS011;7222;57.346;12.150;2023-07-08T09:22:49;4.33;;;2.83;;
14276;SDS011;7222;57.346;12.150;2023-07-08T09:25:22;4.03;;;2.50;;
14276;SDS011;7222;57.346;12.150;2023-07-08T09:27:52;4.67;;;2.70;;
14276;SDS011;7222;57.346;12.150;2023-07-08T09:30:20;3.53;;;2.43;;
14276;SDS011;7222;57.346;12.150;2023-07-08T09:32:50;3.93;;;2.33;;
14276;SDS011;7222;57.346;12.150;2023-07-08T09:35:18;3.97;;;2.70;;
14276;SDS011;7222;57.346;12.150;2023-07-08T09:37:47;3.87;;;2.63;;
14276;SDS011;7222;57.346;12.150;2023-07-08T09:40:16;2.90;;;2.60;;
14276;SDS011;7222;57.346;12.150;2023-07-08T09:42:44;3.87;;;2.27;;
14276;SDS011;7222;57.346;12.150;2023-07-08T09:45:17;3.83;;;2.80;;
14276;SDS011;7222;57.346;12.150;2023-07-08T09:47:47;3.23;;;2.47;;
14276;SDS011;7222;57.346;12.150;2023-07-08T09:50:20;3.80;;;2.30;;
14276;SDS011;7222;57.346;12.150;2023-07-08T09:52:49;2.63;;;2.20;;
14276;SDS011;7222;57.346;12.150;2023-07-08T09:55:16;4.63;;;2.60;;
14276;SDS011;7222;57.346;12.150;2023-07-08T09:57:44;4.60;;;2.60;;
14276;SDS011;7222;57.346;12.150;2023-07-08T10:00:14;2.87;;;2.67;;
14276;SDS011;7222;57.346;12.150;2023-07-08T10:02:43;2.80;;;2.43;;
14276;SDS011;7222;57.346;12.150;2023-07-08T10:05:14;5.03;;;3.23;;
14276;SDS011;7222;57.346;12.150;2023-07-08T10:07:46;3.30;;;2.57;;
14276;SDS011;7222;57.346;12.150;2023-07-08T10:10:15;2.73;;;2.43;;
14276;SDS011;7222;57.346;12.150;2023-07-08T10:12:47;4.37;;;3.00;;
14276;SDS011;7222;57.346;12.150;2023-07-08T10:15:22;3.13;;;2.43;;
14276;SDS011;7222;57.346;12.150;2023-07-08T10:17:53;3.57;;;2.63;;
14276;SDS011;7222;57.346;12.150;2023-07-08T10:20:21;4.00;;;2.88;;
14276;SDS011;7222;57.346;12.150;2023-07-08T10:22:59;3.85;;;2.63;;
14276;SDS011;7222;57.346;12.150;2023-07-08T10:25:35;4.50;;;2.95;;
14276;SDS011;7222;57.346;12.150;2023-07-08T10:28:12;3.13;;;2.47;;
14276;SDS011;7222;57.346;12.150;2023-07-08T10:30:52;3.13;;;2.55;;
14276;SDS011;7222;57.346;12.150;2023-07-08T10:36:46;2.90;;;2.70;;
14276;SDS011;7222;57.346;12.150;2023-07-08T10:42:12;3.92;;;2.83;;
14276;SDS011;7222;57.346;12.150;2023-07-08T10:44:51;3.85;;;2.70;;
14276;SDS011;7222;57.346;12.150;2023-07-08T10:47:26;3.15;;;2.67;;
14276;SDS011;7222;57.346;12.150;2023-07-08T10:50:01;4.25;;;2.72;;
14276;SDS011;7222;57.346;12.150;2023-07-08T10:52:45;3.88;;;2.40;;
14276;SDS011;7222;57.346;12.150;2023-07-08T10:55:28;4.28;;;2.80;;
14276;SDS011;7222;57.346;12.150;2023-07-08T10:58:16;3.38;;;3.00;;
14276;SDS011;7222;57.346;12.150;2023-07-08T11:01:01;4.30;;;3.20;;
14276;SDS011;7222;57.346;12.150;2023-07-08T11:03:40;2.65;;;2.45;;
14276;SDS011;7222;57.346;12.150;2023-07-08T11:06:26;3.78;;;2.78;;
14276;SDS011;7222;57.346;12.150;2023-07-08T11:09:01;3.45;;;2.88;;
14276;SDS011;7222;57.346;12.150;2023-07-08T11:11:32;3.17;;;2.50;;
14276;SDS011;7222;57.346;12.150;2023-07-08T11:14:06;4.78;;;2.80;;
14276;SDS011;7222;57.346;12.150;2023-07-08T11:16:37;3.08;;;2.85;;
14276;SDS011;7222;57.346;12.150;2023-07-08T11:19:10;2.80;;;2.50;;
14276;SDS011;7222;57.346;12.150;2023-07-08T11:21:43;3.35;;;2.60;;
14276;SDS011;7222;57.346;12.150;2023-07-08T11:24:13;3.85;;;2.78;;
14276;SDS011;7222;57.346;12.150;2023-07-08T11:26:50;3.03;;;2.47;;
14276;SDS011;7222;57.346;12.150;2023-07-08T11:29:22;2.55;;;2.35;;
14276;SDS011;7222;57.346;12.150;2023-07-08T11:31:51;4.05;;;2.60;;
14276;SDS011;7222;57.346;12.150;2023-07-08T11:34:20;2.47;;;2.28;;
14276;SDS011;7222;57.346;12.150;2023-07-08T11:36:49;5.38;;;2.58;;
14276;SDS011;7222;57.346;12.150;2023-07-08T11:39:27;3.95;;;2.47;;
14276;SDS011;7222;57.346;12.150;2023-07-08T11:42:10;3.17;;;2.60;;
14276;SDS011;7222;57.346;12.150;2023-07-08T11:44:42;3.58;;;2.60;;
14276;SDS011;7222;57.346;12.150;2023-07-08T11:47:13;2.70;;;2.50;;
14276;SDS011;7222;57.346;12.150;2023-07-08T11:49:45;3.15;;;2.85;;
14276;SDS011;7222;57.346;12.150;2023-07-08T11:52:16;3.15;;;2.55;;
14276;SDS011;7222;57.346;12.150;2023-07-08T11:54:45;3.30;;;2.58;;
14276;SDS011;7222;57.346;12.150;2023-07-08T11:57:18;2.35;;;2.08;;
14276;SDS011;7222;57.346;12.150;2023-07-08T12:00:06;2.90;;;2.33;;
14276;SDS011;7222;57.346;12.150;2023-07-08T12:02:47;2.50;;;2.28;;
14276;SDS011;7222;57.346;12.150;2023-07-08T12:05:15;3.45;;;2.60;;
14276;SDS011;7222;57.346;12.150;2023-07-08T12:07:44;2.70;;;2.30;;
14276;SDS011;7222;57.346;12.150;2023-07-08T12:10:15;2.85;;;2.63;;
14276;SDS011;7222;57.346;12.150;2023-07-08T12:12:46;4.15;;;2.78;;
14276;SDS011;7222;57.346;12.150;2023-07-08T12:15:14;2.83;;;2.50;;
14276;SDS011;7222;57.346;12.150;2023-07-08T12:17:47;2.70;;;2.35;;
14276;SDS011;7222;57.346;12.150;2023-07-08T12:20:17;2.53;;;2.33;;
14276;SDS011;7222;57.346;12.150;2023-07-08T12:22:47;2.05;;;1.95;;
14276;SDS011;7222;57.346;12.150;2023-07-08T12:25:14;2.50;;;2.30;;
14276;SDS011;7222;57.346;12.150;2023-07-08T12:27:45;3.53;;;2.50;;
14276;SDS011;7222;57.346;12.150;2023-07-08T12:30:14;3.35;;;2.38;;
14276;SDS011;7222;57.346;12.150;2023-07-08T12:32:42;2.60;;;2.13;;
14276;SDS011;7222;57.346;12.150;2023-07-08T12:35:15;3.22;;;2.60;;
14276;SDS011;7222;57.346;12.150;2023-07-08T12:37:49;4.20;;;2.60;;
14276;SDS011;7222;57.346;12.150;2023-07-08T12:40:17;4.00;;;2.47;;
14276;SDS011;7222;57.346;12.150;2023-07-08T12:42:48;2.72;;;2.53;;
14276;SDS011;7222;57.346;12.150;2023-07-08T12:45:17;2.50;;;2.30;;
14276;SDS011;7222;57.346;12.150;2023-07-08T12:47:46;3.85;;;3.00;;
14276;SDS011;7222;57.346;12.150;2023-07-08T12:50:14;3.28;;;2.35;;
14276;SDS011;7222;57.346;12.150;2023-07-08T12:52:42;3.58;;;2.58;;
14276;SDS011;7222;57.346;12.150;2023-07-08T12:55:11;2.75;;;2.45;;
14276;SDS011;7222;57.346;12.150;2023-07-08T12:57:39;3.67;;;2.17;;
14276;SDS011;7222;57.346;12.150;2023-07-08T13:00:14;4.70;;;2.90;;
14276;SDS011;7222;57.346;12.150;2023-07-08T13:02:47;3.72;;;2.30;;
14276;SDS011;7222;57.346;12.150;2023-07-08T13:05:22;3.42;;;2.70;;
14276;SDS011;7222;57.346;12.150;2023-07-08T13:07:49;3.25;;;2.92;;
14276;SDS011;7222;57.346;12.150;2023-07-08T13:10:18;2.58;;;2.38;;
14276;SDS011;7222;57.346;12.150;2023-07-08T13:12:48;3.67;;;2.58;;
14276;SDS011;7222;57.346;12.150;2023-07-08T13:15:21;3.05;;;2.80;;
14276;SDS011;7222;57.346;12.150;2023-07-08T13:17:54;4.88;;;2.80;;
14276;SDS011;7222;57.346;12.150;2023-07-08T13:20:21;3.45;;;2.15;;
14276;SDS011;7222;57.346;12.150;2023-07-08T13:22:50;3.40;;;2.63;;
14276;SDS011;7222;57.346;12.150;2023-07-08T13:25:20;3.50;;;2.53;;
14276;SDS011;7222;57.346;12.150;2023-07-08T13:27:54;2.63;;;2.42;;
14276;SDS011;7222;57.346;12.150;2023-07-08T13:30:25;3.63;;;2.50;;
14276;SDS011;7222;57.346;12.150;2023-07-08T13:32:54;3.92;;;2.60;;
14276;SDS011;7222;57.346;12.150;2023-07-08T13:35:23;2.78;;;2.17;;
14276;SDS011;7222;57.346;12.150;2023-07-08T13:37:53;2.75;;;2.22;;
14276;SDS011;7222;57.346;12.150;2023-07-08T13:40:21;2.50;;;2.30;;
14276;SDS011;7222;57.346;12.150;2023-07-08T13:42:49;3.90;;;2.70;;
14276;SDS011;7222;57.346;12.150;2023-07-08T13:45:21;2.70;;;2.35;;
14276;SDS011;7222;57.346;12.150;2023-07-08T13:47:59;2.90;;;2.30;;
14276;SDS011;7222;57.346;12.150;2023-07-08T13:50:29;2.92;;;2.08;;
14276;SDS011;7222;57.346;12.150;2023-07-08T13:53:15;3.55;;;2.72;;
14276;SDS011;7222;57.346;12.150;2023-07-08T13:55:44;3.75;;;2.53;;
14276;SDS011;7222;57.346;12.150;2023-07-08T13:58:14;2.50;;;2.28;;
14276;SDS011;7222;57.346;12.150;2023-07-08T14:00:42;2.80;;;2.58;;
14276;SDS011;7222;57.346;12.150;2023-07-08T14:03:11;2.50;;;2.30;;
14276;SDS011;7222;57.346;12.150;2023-07-08T14:05:41;3.63;;;2.50;;
14276;SDS011;7222;57.346;12.150;2023-07-08T14:08:12;2.40;;;2.28;;
14276;SDS011;7222;57.346;12.150;2023-07-08T14:10:40;3.05;;;2.47;;
14276;SDS011;7222;57.346;12.150;2023-07-08T14:13:08;2.55;;;2.10;;
14276;SDS011;7222;57.346;12.150;2023-07-08T14:15:37;3.50;;;2.30;;
14276;SDS011;7222;57.346;12.150;2023-07-08T14:18:05;2.65;;;2.28;;
14276;SDS011;7222;57.346;12.150;2023-07-08T14:20:35;2.92;;;2.35;;
14276;SDS011;7222;57.346;12.150;2023-07-08T14:23:03;2.75;;;2.40;;
14276;SDS011;7222;57.346;12.150;2023-07-08T14:25:30;3.22;;;2.63;;
14276;SDS011;7222;57.346;12.150;2023-07-08T14:27:57;2.58;;;2.38;;
14276;SDS011;7222;57.346;12.150;2023-07-08T14:30:24;2.58;;;2.05;;
14276;SDS011;7222;57.346;12.150;2023-07-08T14:32:50;2.92;;;2.35;;
14276;SDS011;7222;57.346;12.150;2023-07-08T14:35:19;2.38;;;2.17;;
14276;SDS011;7222;57.346;12.150;2023-07-08T14:37:51;4.13;;;2.47;;
14276;SDS011;7222;57.346;12.150;2023-07-08T14:40:21;3.38;;;2.28;;
14276;SDS011;7222;57.346;12.150;2023-07-08T14:42:52;4.18;;;2.55;;
14276;SDS011;7222;57.346;12.150;2023-07-08T14:45:24;3.35;;;2.42;;
14276;SDS011;7222;57.346;12.150;2023-07-08T14:47:51;2.50;;;2.30;;
14276;SDS011;7222;57.346;12.150;2023-07-08T14:50:18;4.43;;;2.42;;
14276;SDS011;7222;57.346;12.150;2023-07-08T14:52:45;3.22;;;2.42;;
14276;SDS011;7222;57.346;12.150;2023-07-08T14:55:15;2.88;;;2.50;;
14276;SDS011;7222;57.346;12.150;2023-07-08T14:57:43;2.80;;;2.13;;
14276;SDS011;7222;57.346;12.150;2023-07-08T15:00:12;3.38;;;2.65;;
14276;SDS011;7222;57.346;12.150;2023-07-08T15:02:41;2.20;;;2.00;;
14276;SDS011;7222;57.346;12.150;2023-07-08T15:05:17;3.03;;;2.55;;
14276;SDS011;7222;57.346;12.150;2023-07-08T15:07:48;2.92;;;2.50;;
14276;SDS011;7222;57.346;12.150;2023-07-08T15:10:17;3.35;;;2.28;;